Time;durP1;ratioP1;P1;durP2;ratioP2;P2;SDS_P1;SDS_P2;PMS_P1;PMS_P2;Temp;Humidity;BMP_temperature;BMP_pressure;BME280_temperature;BME280_humidity;BME280_pressure;Samples;Min_cycle;Max_cycle;Signal;HPM_P1;HPM_P2
2022/04/26 03:36:37;;;;;;;11.68;8.93;;;;;;;10.71;99.78;100122.69;5131749;27;20080;-70
2022/04/26 03:39:03;;;;;;;15.27;10.38;;;;;;;10.69;100.00;100121.97;5131647;27;20402;-71
2022/04/26 03:41:29;;;;;;;13.38;9.13;;;;;;;10.66;100.00;100130.28;5131556;27;20546;-71
2022/04/26 03:43:55;;;;;;;12.88;9.07;;;;;;;10.54;100.00;100109.94;5131605;27;20106;-70
2022/04/26 03:46:20;;;;;;;15.57;9.65;;;;;;;10.66;99.90;100130.28;5131362;27;20479;-70
2022/04/26 03:48:45;;;;;;;10.65;8.43;;;;;;;10.67;99.77;100138.19;5112856;27;20449;-70
2022/04/26 03:51:11;;;;;;;13.57;10.30;;;;;;;10.62;99.73;100134.25;5131378;27;20179;-70
2022/04/26 03:53:37;;;;;;;11.43;9.02;;;;;;;10.65;99.43;100142.88;5095822;28;20024;-70
2022/04/26 03:56:03;;;;;;;11.50;9.20;;;;;;;10.64;99.15;100148.38;5110788;28;20016;-70
2022/04/26 03:58:29;;;;;;;14.48;10.13;;;;;;;10.62;98.87;100148.53;5118773;27;20049;-70
2022/04/26 04:00:55;;;;;;;15.48;10.18;;;;;;;10.50;99.00;100138.03;5110694;28;20035;-71
2022/04/26 04:03:20;;;;;;;11.80;9.27;;;;;;;10.47;99.18;100139.16;5110529;28;20084;-71
2022/04/26 04:05:46;;;;;;;11.32;8.55;;;;;;;10.56;98.76;100151.75;5108849;28;20031;-70
2022/04/26 04:08:11;;;;;;;11.05;7.95;;;;;;;10.56;98.06;100151.75;5130547;27;20584;-71
2022/04/26 04:10:36;;;;;;;13.25;10.07;;;;;;;10.52;97.72;100152.16;5130699;27;20035;-71
2022/04/26 04:13:02;;;;;;;11.68;8.57;;;;;;;10.44;97.34;100141.25;5113560;27;20071;-71
2022/04/26 04:15:27;;;;;;;14.07;9.20;;;;;;;10.35;98.27;100145.63;5110138;28;20147;-70
2022/04/26 04:17:53;;;;;;;13.90;9.23;;;;;;;10.37;98.28;100150.84;5105683;27;20043;-71
2022/04/26 04:20:20;;;;;;;12.90;9.95;;;;;;;10.47;97.85;100165.97;5105016;28;20040;-70
2022/04/26 04:22:48;;;;;;;11.57;9.25;;;;;;;10.43;98.47;100159.22;5109840;28;20031;-71
2022/04/26 04:25:15;;;;;;;14.57;9.93;;;;;;;10.40;98.59;100166.66;5127861;27;20023;-71
2022/04/26 04:27:40;;;;;;;12.90;10.15;;;;;;;10.39;98.88;100178.38;5107287;28;20403;-71
2022/04/26 04:30:06;;;;;;;15.32;10.60;;;;;;;10.34;99.50;100176.09;5121745;28;20036;-71
2022/04/26 04:32:32;;;;;;;15.25;10.85;;;;;;;10.38;100.00;100190.91;5130126;28;20034;-71
2022/04/26 04:34:57;;;;;;;12.45;9.52;;;;;;;10.49;100.00;100195.34;5127904;28;20031;-71
2022/04/26 04:37:23;;;;;;;13.55;10.65;;;;;;;10.22;100.00;100146.88;5114818;28;20033;-71
2022/04/26 04:39:52;;;;;;;14.38;11.27;;;;;;;10.51;100.00;100191.53;5127655;28;20025;-71
2022/04/26 04:42:17;;;;;;;13.88;10.18;;;;;;;10.50;100.00;100197.03;5104103;28;20020;-71
2022/04/26 04:44:43;;;;;;;14.02;11.05;;;;;;;10.54;100.00;100207.34;5111690;28;20394;-71
2022/04/26 04:47:08;;;;;;;15.88;12.07;;;;;;;10.55;100.00;100202.84;5128801;28;20496;-71
2022/04/26 04:49:34;;;;;;;16.83;11.35;;;;;;;10.59;100.00;100198.88;5115745;28;20525;-70
2022/04/26 04:52:00;;;;;;;14.75;12.45;;;;;;;10.62;100.00;100201.28;5114011;28;20376;-70
2022/04/26 04:54:25;;;;;;;16.17;12.65;;;;;;;10.59;100.00;100194.38;5117655;27;20037;-70
2022/04/26 04:56:51;;;;;;;19.83;13.27;;;;;;;10.69;100.00;100210.47;5115309;27;20044;-70
2022/04/26 04:59:16;;;;;;;16.95;13.25;;;;;;;10.75;100.00;100212.63;5119137;27;20448;-70
2022/04/26 05:01:42;;;;;;;17.33;13.05;;;;;;;10.83;100.00;100213.63;5112012;27;20023;-70
2022/04/26 05:04:08;;;;;;;15.65;12.20;;;;;;;10.94;100.00;100208.13;5134272;27;20034;-70
2022/04/26 05:06:33;;;;;;;18.27;12.15;;;;;;;10.96;100.00;100192.72;5131615;27;20098;-69
2022/04/26 05:08:59;;;;;;;15.85;11.40;;;;;;;11.17;100.00;100219.44;5134446;27;20041;-65
2022/04/26 05:11:24;;;;;;;16.23;12.63;;;;;;;11.25;98.45;100217.75;5127310;27;20406;-65
2022/04/26 05:13:50;;;;;;;16.90;12.98;;;;;;;11.25;98.50;100206.16;5113598;27;20031;-65
2022/04/26 05:16:15;;;;;;;15.05;12.07;;;;;;;11.34;98.53;100216.03;5113819;27;20038;-65
2022/04/26 05:18:41;;;;;;;16.67;13.30;;;;;;;11.42;98.25;100222.41;5129653;27;20042;-65
2022/04/26 05:21:08;;;;;;;16.10;12.50;;;;;;;11.45;98.08;100227.47;5113898;28;20030;-65
2022/04/26 05:26:18;;;;;;;13.90;11.43;;;;;;;11.53;96.50;100221.41;5116563;27;20076;-65
2022/04/26 05:28:44;;;;;;;14.43;11.68;;;;;;;11.53;96.23;100230.31;5095124;28;20155;-65
2022/04/26 05:31:10;;;;;;;14.07;10.85;;;;;;;11.61;96.24;100231.44;5116117;27;20068;-65
2022/04/26 05:33:35;;;;;;;14.85;12.10;;;;;;;11.54;96.93;100223.09;5117255;27;20019;-64
2022/04/26 05:36:01;;;;;;;13.07;10.90;;;;;;;11.68;97.67;100238.81;5117352;27;20088;-65
2022/04/26 05:38:27;;;;;;;17.33;12.90;;;;;;;11.74;97.52;100232.88;5102034;27;20035;-65
2022/04/26 05:40:53;;;;;;;14.82;11.02;;;;;;;11.80;97.09;100236.81;5133282;27;20027;-64
2022/04/26 05:43:18;;;;;;;13.10;10.55;;;;;;;11.69;97.43;100210.09;5133810;27;20031;-64
2022/04/26 05:45:44;;;;;;;15.80;10.55;;;;;;;12.03;96.79;100235.50;5114872;27;20028;-65
2022/04/26 05:48:11;;;;;;;12.18;10.25;;;;;;;12.11;96.27;100236.44;5130174;27;20472;-66
2022/04/26 05:50:37;;;;;;;12.15;10.07;;;;;;;12.22;94.71;100240.81;5115334;27;20031;-65
2022/04/26 05:53:02;;;;;;;12.65;9.05;;;;;;;12.25;93.25;100227.06;5132250;27;20449;-65
2022/04/26 05:55:28;;;;;;;12.40;9.95;;;;;;;12.27;92.86;100236.69;5123286;27;20077;-65
2022/04/26 05:57:53;;;;;;;13.85;10.43;;;;;;;12.30;93.94;100230.16;5094208;28;20118;-65
2022/04/26 06:00:19;;;;;;;10.73;9.02;;;;;;;12.44;92.78;100227.81;5130839;27;20023;-65
2022/04/26 06:02:44;;;;;;;11.48;9.63;;;;;;;12.59;90.50;100233.56;5129370;27;20501;-65
2022/04/26 06:05:10;;;;;;;10.90;9.10;;;;;;;12.67;89.32;100242.56;5127834;27;20039;-65
2022/04/26 06:07:35;;;;;;;10.35;8.60;;;;;;;12.76;89.91;100246.19;5115003;27;20738;-64
2022/04/26 06:10:02;;;;;;;11.32;8.90;;;;;;;12.84;88.99;100246.31;5133127;27;20026;-65
2022/04/26 06:12:27;;;;;;;16.00;8.68;;;;;;;12.85;88.83;100237.22;5130489;27;20383;-65
2022/04/26 06:14:54;;;;;;;14.55;10.88;;;;;;;12.89;89.74;100247.53;5119511;27;20051;-65
2022/04/26 06:17:19;;;;;;;12.10;9.05;;;;;;;12.96;88.65;100248.63;5112552;27;20069;-65
2022/04/26 06:19:45;;;;;;;10.77;8.40;;;;;;;13.07;87.16;100250.31;5112291;27;20120;-66
2022/04/26 06:22:10;;;;;;;8.80;7.90;;;;;;;12.98;85.39;100216.19;5112572;28;20036;-65
2022/04/26 06:24:36;;;;;;;8.75;7.50;;;;;;;13.21;85.38;100247.06;5122163;27;20030;-65
2022/04/26 06:27:02;;;;;;;11.63;7.60;;;;;;;13.27;85.68;100239.25;5130222;27;20019;-65
2022/04/26 06:29:28;;;;;;;10.13;8.57;;;;;;;13.33;86.56;100246.72;5121441;27;20104;-65
2022/04/26 06:31:54;;;;;;;11.52;8.38;;;;;;;13.35;85.76;100236.63;5114957;27;20038;-65
2022/04/26 06:34:19;;;;;;;9.40;7.88;;;;;;;13.53;83.93;100250.06;5116037;27;20031;-65
2022/04/26 06:36:45;;;;;;;8.20;6.38;;;;;;;13.58;82.65;100247.78;5132670;27;20034;-65
2022/04/26 06:39:10;;;;;;;5.80;5.20;;;;;;;13.69;79.33;100245.69;5121983;27;20030;-65
2022/04/26 06:41:36;;;;;;;6.80;5.57;;;;;;;13.81;78.27;100262.44;5113041;27;20035;-65
2022/04/26 06:44:02;;;;;;;5.10;4.60;;;;;;;13.91;77.92;100255.13;5093366;28;20031;-65
2022/04/26 06:46:27;;;;;;;5.88;5.10;;;;;;;13.98;78.05;100256.16;5127182;27;20471;-66
2022/04/26 06:48:57;;;;;;;6.88;4.90;;;;;;;14.09;78.60;100255.06;5123286;27;20030;-65
2022/04/26 06:51:22;;;;;;;7.78;5.30;;;;;;;14.19;76.21;100253.94;5111884;28;20035;-65
2022/04/26 06:53:48;;;;;;;6.30;4.70;;;;;;;14.20;75.02;100250.25;5117090;27;20042;-65
2022/04/26 06:56:13;;;;;;;5.20;4.43;;;;;;;14.23;75.33;100244.56;5123712;27;20027;-65
2022/04/26 06:58:39;;;;;;;4.53;4.03;;;;;;;14.39;74.80;100243.81;5132136;27;20046;-65
2022/04/26 07:01:04;;;;;;;5.22;4.72;;;;;;;14.56;73.25;100253.69;5129800;27;20035;-65
2022/04/26 07:03:30;;;;;;;4.85;4.10;;;;;;;14.66;72.06;100257.94;5126504;27;20482;-65
2022/04/26 07:05:55;;;;;;;5.32;4.63;;;;;;;14.71;71.73;100250.22;5099353;28;20019;-65
2022/04/26 07:08:20;;;;;;;4.75;4.25;;;;;;;14.86;72.29;100264.78;5108766;27;20031;-66
2022/04/26 07:10:46;;;;;;;5.07;4.35;;;;;;;14.93;72.15;100254.19;5131746;27;20072;-66
2022/04/26 07:13:15;;;;;;;5.65;4.80;;;;;;;15.04;72.41;100257.41;5122280;27;20030;-66
2022/04/26 07:15:41;;;;;;;5.15;4.65;;;;;;;15.20;69.16;100273.69;5097949;27;20083;-66
2022/04/26 07:18:06;;;;;;;6.40;4.72;;;;;;;15.35;68.08;100281.97;5124807;27;20103;-66
2022/04/26 07:20:32;;;;;;;5.13;4.20;;;;;;;15.38;69.03;100271.72;5111208;28;20164;-66
2022/04/26 07:22:57;;;;;;;5.45;4.57;;;;;;;15.48;68.48;100272.38;5114122;27;20018;-66
2022/04/26 07:25:23;;;;;;;4.68;4.20;;;;;;;15.53;68.31;100271.91;5131995;27;20031;-66
2022/04/26 07:27:48;;;;;;;4.85;4.25;;;;;;;15.59;66.69;100274.78;5121061;27;20058;-66
2022/04/26 07:30:13;;;;;;;6.43;4.15;;;;;;;15.57;67.04;100266.00;5125950;27;20499;-66
2022/04/26 07:35:23;;;;;;;3.90;3.35;;;;;;;15.84;63.78;100276.47;5129780;27;20038;-66
2022/04/26 07:37:49;;;;;;;4.78;3.78;;;;;;;15.88;63.65;100282.41;5105949;28;20031;-66
2022/04/26 07:40:18;;;;;;;5.93;4.05;;;;;;;15.80;64.43;100264.31;5122080;27;20037;-66
2022/04/26 07:42:44;;;;;;;5.00;3.60;;;;;;;16.01;64.78;100276.47;5121596;27;20041;-67
2022/04/26 07:45:09;;;;;;;4.68;3.70;;;;;;;16.09;63.23;100276.47;5118678;27;20486;-66
2022/04/26 07:47:36;;;;;;;4.25;3.38;;;;;;;16.22;62.08;100282.19;5130050;27;20035;-66
2022/04/26 07:50:03;;;;;;;4.78;3.33;;;;;;;16.35;62.56;100288.75;5110795;28;20049;-66
2022/04/26 07:52:28;;;;;;;4.97;3.33;;;;;;;16.40;60.30;100282.81;5110954;28;20040;-66
2022/04/26 07:54:55;;;;;;;4.65;3.22;;;;;;;16.45;60.70;100275.94;5111059;28;20035;-66
2022/04/26 07:57:20;;;;;;;4.28;3.88;;;;;;;16.54;60.69;100290.28;5110808;28;20027;-66
2022/04/26 07:59:46;;;;;;;3.78;2.78;;;;;;;16.64;60.29;100299.88;5130091;27;20490;-66
2022/04/26 08:02:11;;;;;;;4.05;3.13;;;;;;;16.67;58.22;100294.13;5112774;27;20042;-66
2022/04/26 08:04:37;;;;;;;3.33;2.92;;;;;;;16.78;57.35;100301.03;5123114;27;20301;-66
2022/04/26 08:07:04;;;;;;;2.97;2.67;;;;;;;16.79;58.01;100291.88;5093099;28;20011;-66
2022/04/26 08:09:29;;;;;;;2.78;2.58;;;;;;;16.88;55.80;100290.84;5118744;27;20039;-67
2022/04/26 08:11:55;;;;;;;5.55;2.80;;;;;;;17.03;55.89;100294.50;5131203;27;20092;-66
2022/04/26 08:14:20;;;;;;;3.72;3.20;;;;;;;17.10;56.86;100300.91;5124549;27;20043;-66
2022/04/26 08:16:46;;;;;;;3.15;2.35;;;;;;;17.11;56.80;100289.88;5114057;27;20043;-66
2022/04/26 08:19:11;;;;;;;3.92;2.67;;;;;;;17.24;56.96;100289.31;5115131;27;20027;-66
2022/04/26 08:21:38;;;;;;;4.43;3.03;;;;;;;17.46;57.28;100300.22;5116026;27;20031;-66
2022/04/26 08:29:32;;;;;;;3.78;3.13;;;;;;;18.18;53.66;100285.22;5120820;27;20374;-66
2022/04/26 08:31:57;;;;;;;3.00;2.70;;;;;;;19.04;50.87;100294.50;5110448;28;20032;-67
2022/04/26 08:34:23;;;;;;;3.28;2.83;;;;;;;19.72;49.56;100300.34;5127119;28;20027;-66
2022/04/26 08:36:49;;;;;;;2.53;2.10;;;;;;;20.29;47.60;100291.25;5101786;28;20057;-67
2022/04/26 08:39:15;;;;;;;2.60;2.22;;;;;;;20.62;46.99;100295.91;5094963;28;20909;-66
2022/04/26 08:41:40;;;;;;;2.92;2.40;;;;;;;20.61;46.41;100296.97;5122104;28;20030;-66
2022/04/26 08:44:10;;;;;;;3.17;2.88;;;;;;;20.50;45.93;100280.34;5130597;28;20031;-66
2022/04/26 08:52:06;;;;;;;2.65;2.45;;;;;;;20.58;45.81;100293.78;5124015;28;20567;-66
2022/04/26 08:54:32;;;;;;;4.47;2.80;;;;;;;20.49;45.67;100292.25;5113565;28;20115;-66
2022/04/26 08:56:59;;;;;;;2.63;2.42;;;;;;;20.31;47.21;100265.50;5116824;28;20058;-66
2022/04/26 08:59:25;;;;;;;2.72;1.98;;;;;;;20.59;46.47;100295.47;5115495;28;20372;-66
2022/04/26 09:02:18;;;;;;;2.30;2.10;;;;;;;20.51;45.34;100295.63;5118273;28;20514;-66
2022/04/26 09:04:44;;;;;;;2.20;2.00;;;;;;;20.48;45.78;100293.31;5128207;28;20030;-66
2022/04/26 09:07:11;;;;;;;3.20;2.45;;;;;;;20.41;44.75;100289.69;5127700;28;20018;-66
2022/04/26 09:09:41;;;;;;;2.03;1.90;;;;;;;20.52;45.54;100294.56;5113432;28;20434;-66
2022/04/26 09:12:12;;;;;;;2.28;2.05;;;;;;;20.39;44.74;100289.03;5126562;28;20105;-66
2022/04/26 09:14:47;;;;;;;2.72;2.50;;;;;;;20.42;45.00;100278.59;5118755;28;20045;-66
2022/04/26 09:17:16;;;;;;;2.40;1.50;;;;;;;20.41;44.66;100287.78;5110128;28;20126;-66
2022/04/26 09:19:47;;;;;;;2.08;1.88;;;;;;;20.44;44.32;100297.47;5109470;28;20031;-66
2022/04/26 09:22:27;;;;;;;3.25;2.35;;;;;;;20.36;43.49;100284.84;5116769;28;20046;-66
2022/04/26 09:24:56;;;;;;;4.18;2.60;;;;;;;20.23;45.32;100294.78;5130241;28;20098;-72
2022/04/26 09:27:23;;;;;;;3.67;2.40;;;;;;;20.16;46.24;100283.84;5122644;28;20048;-72
2022/04/26 09:29:49;;;;;;;4.47;2.22;;;;;;;20.08;46.52;100286.66;5117911;28;20031;-72
2022/04/26 09:32:14;;;;;;;2.55;2.35;;;;;;;20.18;46.08;100285.31;5094195;28;20031;-71
2022/04/26 09:34:40;;;;;;;2.30;2.10;;;;;;;20.14;45.88;100281.31;5125859;28;20059;-72
2022/04/26 09:37:06;;;;;;;7.20;3.50;;;;;;;20.17;46.33;100280.06;5114725;27;20038;-72
2022/04/26 09:39:31;;;;;;;2.97;2.67;;;;;;;20.07;46.42;100280.38;5132403;27;20031;-72
2022/04/26 09:41:57;;;;;;;3.63;2.72;;;;;;;20.17;46.19;100286.38;5130447;27;20034;-72
2022/04/26 09:44:33;;;;;;;4.07;2.58;;;;;;;20.22;45.87;100285.78;5120551;27;20050;-72
2022/04/26 09:46:59;;;;;;;3.10;2.80;;;;;;;20.21;46.53;100280.53;5111707;28;20040;-72
2022/04/26 09:49:26;;;;;;;4.05;3.15;;;;;;;20.06;46.56;100278.69;5126899;27;20032;-72
2022/04/26 09:51:59;;;;;;;4.70;3.10;;;;;;;20.07;46.58;100274.09;5131684;27;20019;-72
2022/04/26 09:54:25;;;;;;;2.53;2.10;;;;;;;20.12;46.63;100274.38;5105590;27;20027;-72
2022/04/26 09:56:51;;;;;;;2.92;2.72;;;;;;;20.18;46.33;100277.16;5105208;28;20031;-71
2022/04/26 09:59:27;;;;;;;3.83;2.72;;;;;;;20.17;45.73;100272.75;5133306;27;20030;-72
2022/04/26 10:01:57;;;;;;;3.20;2.40;;;;;;;20.12;45.52;100263.50;5113017;28;20081;-72
2022/04/26 10:04:29;;;;;;;3.97;2.60;;;;;;;20.02;45.51;100246.59;5112482;27;20110;-72
2022/04/26 10:07:05;;;;;;;6.22;2.50;;;;;;;20.19;45.65;100267.94;5131067;27;20027;-72
2022/04/26 10:09:31;;;;;;;2.90;2.40;;;;;;;20.24;45.15;100261.88;5120765;27;20030;-72
2022/04/26 10:12:01;;;;;;;2.47;2.28;;;;;;;20.17;45.71;100263.72;5113001;28;20110;-72
2022/04/26 10:14:31;;;;;;;2.25;2.05;;;;;;;20.11;46.26;100267.19;5119873;27;20503;-72
2022/04/26 10:16:57;;;;;;;2.63;2.42;;;;;;;20.09;45.58;100261.94;5131815;27;20034;-72
2022/04/26 10:19:37;;;;;;;2.53;2.33;;;;;;;20.01;44.93;100264.84;5115326;27;20036;-72
2022/04/26 10:22:03;;;;;;;2.90;2.17;;;;;;;20.07;45.61;100260.47;5122938;27;20023;-72
2022/04/26 10:24:28;;;;;;;3.42;2.70;;;;;;;20.04;44.46;100264.44;5133241;27;20038;-72
2022/04/26 10:27:22;;;;;;;2.80;2.38;;;;;;;20.06;44.43;100253.34;5118846;27;20030;-72
2022/04/26 10:29:48;;;;;;;3.58;2.42;;;;;;;20.03;45.13;100246.41;5103894;27;20063;-72
2022/04/26 10:32:40;;;;;;;2.38;2.17;;;;;;;20.03;45.91;100238.22;5116581;27;20066;-72
2022/04/26 10:35:23;;;;;;;2.83;2.28;;;;;;;20.13;46.42;100249.66;5132178;27;20035;-72
2022/04/26 10:38:15;;;;;;;2.50;2.17;;;;;;;20.25;45.90;100251.84;5114623;27;20403;-72
2022/04/26 10:41:05;;;;;;;3.63;2.85;;;;;;;20.34;44.56;100245.22;5097839;27;20371;-72
2022/04/26 10:43:31;;;;;;;2.72;2.17;;;;;;;20.31;44.93;100240.97;5117784;27;20023;-72
2022/04/26 10:46:16;;;;;;;3.22;2.08;;;;;;;20.33;44.85;100241.63;5117545;27;20019;-72
2022/04/26 10:48:42;;;;;;;2.60;1.80;;;;;;;20.33;45.70;100230.75;5129344;27;20034;-72
2022/04/26 10:51:42;;;;;;;2.60;2.35;;;;;;;20.46;44.04;100236.28;5123796;27;20020;-72
2022/04/26 10:54:08;;;;;;;3.83;1.90;;;;;;;20.50;44.97;100242.19;5019568;28;20080;-72
2022/04/26 10:56:34;;;;;;;2.22;1.85;;;;;;;20.54;45.02;100241.56;5096270;27;20066;-72
2022/04/26 10:59:00;;;;;;;2.30;2.10;;;;;;;20.53;42.84;100231.72;5118485;27;20101;-71
2022/04/26 11:01:28;;;;;;;2.38;1.88;;;;;;;20.42;42.98;100226.81;5111361;27;20130;-71
2022/04/26 11:03:58;;;;;;;4.03;2.05;;;;;;;20.53;41.93;100233.59;5111737;28;20031;-72
2022/04/26 11:06:34;;;;;;;1.98;1.67;;;;;;;20.42;42.01;100229.56;5130158;27;20524;-72
2022/04/26 11:09:25;;;;;;;6.50;2.55;;;;;;;20.32;43.41;100239.09;5106099;27;20039;-72
2022/04/26 11:11:53;;;;;;;1.95;1.75;;;;;;;20.47;42.33;100228.97;5116178;27;20063;-72
2022/04/26 11:14:20;;;;;;;2.38;1.33;;;;;;;20.58;41.89;100231.97;5111942;28;20051;-72
2022/04/26 11:16:59;;;;;;;1.70;1.60;;;;;;;20.54;42.66;100238.81;5124666;27;20509;-72
2022/04/26 11:19:32;;;;;;;2.10;1.90;;;;;;;20.42;43.01;100232.28;5120731;27;20035;-72
2022/04/26 11:22:06;;;;;;;2.05;1.50;;;;;;;20.37;43.51;100236.66;5114373;27;20016;-72
2022/04/26 11:30:00;;;;;;;3.83;1.75;;;;;;;20.25;42.99;100228.19;5111775;27;20519;-72
2022/04/26 11:32:42;;;;;;;2.42;1.60;;;;;;;20.38;41.50;100228.28;5124954;27;20031;-67
2022/04/26 11:35:13;;;;;;;3.03;1.50;;;;;;;20.43;41.88;100230.38;5111070;28;20036;-66
2022/04/26 11:37:46;;;;;;;3.38;2.22;;;;;;;20.38;41.75;100230.16;5124998;27;20029;-66
2022/04/26 11:40:21;;;;;;;1.85;1.75;;;;;;;20.36;41.52;100224.03;5121294;27;20039;-72
2022/04/26 11:42:47;;;;;;;1.98;1.67;;;;;;;20.32;42.01;100231.78;5095669;28;20019;-72
2022/04/26 11:45:12;;;;;;;1.98;1.58;;;;;;;20.38;41.85;100213.81;5109794;27;20018;-72
2022/04/26 11:47:38;;;;;;;2.45;1.70;;;;;;;20.31;42.36;100223.81;5131400;27;20055;-72
2022/04/26 11:50:28;;;;;;;2.83;1.73;;;;;;;20.25;43.24;100224.59;5116324;27;20426;-72
2022/04/26 11:53:04;;;;;;;5.20;1.90;;;;;;;20.04;43.01;100209.13;5117892;27;20400;-72
2022/04/26 11:55:35;;;;;;;1.63;1.38;;;;;;;20.10;43.36;100220.09;5118222;27;20019;-72
2022/04/26 11:58:17;;;;;;;2.17;1.88;;;;;;;20.10;43.36;100228.25;5117879;27;20034;-72
2022/04/26 12:01:06;;;;;;;1.92;1.73;;;;;;;20.14;43.76;100224.13;5117233;27;20486;-72
2022/04/26 12:03:33;;;;;;;2.60;1.88;;;;;;;20.11;43.56;100221.78;5131444;27;20045;-72
2022/04/26 12:06:04;;;;;;;2.10;1.90;;;;;;;20.05;43.83;100210.81;5119582;27;20032;-72
2022/04/26 12:08:39;;;;;;;2.00;1.75;;;;;;;19.98;44.07;100210.75;5105430;28;20023;-72
2022/04/26 12:11:16;;;;;;;1.70;1.60;;;;;;;19.96;44.14;100212.00;5128648;27;20034;-72
2022/04/26 12:13:42;;;;;;;2.72;2.00;;;;;;;19.94;44.23;100204.03;5102424;28;20038;-72
2022/04/26 12:16:20;;;;;;;1.90;1.75;;;;;;;19.98;45.21;100210.75;5126320;27;20031;-72
2022/04/26 12:18:47;;;;;;;3.20;1.80;;;;;;;20.01;45.63;100207.66;5122830;27;20095;-72
2022/04/26 12:21:13;;;;;;;2.45;1.70;;;;;;;20.05;45.10;100203.47;5123674;27;20057;-72
2022/04/26 12:23:38;;;;;;;1.70;1.60;;;;;;;20.07;44.50;100203.28;5128485;27;20467;-72
2022/04/26 12:26:05;;;;;;;1.55;1.45;;;;;;;20.08;44.68;100197.66;5123324;27;20103;-72
2022/04/26 12:28:31;;;;;;;1.48;1.38;;;;;;;20.08;44.90;100188.63;5112612;28;20467;-72
2022/04/26 12:30:57;;;;;;;2.50;1.85;;;;;;;20.27;44.07;100196.13;5123878;27;20028;-72
2022/04/26 12:33:28;;;;;;;2.72;1.60;;;;;;;20.30;44.02;100194.88;5114921;27;20026;-72
2022/04/26 12:36:06;;;;;;;2.50;1.40;;;;;;;20.35;43.92;100193.25;5100733;28;20042;-72
2022/04/26 12:38:47;;;;;;;2.10;1.80;;;;;;;20.48;42.55;100184.31;5121304;28;20468;-72
2022/04/26 12:41:13;;;;;;;3.15;1.92;;;;;;;20.63;42.49;100194.03;5113251;28;20080;-72
2022/04/26 12:43:40;;;;;;;1.90;1.60;;;;;;;20.81;41.89;100190.75;5110411;28;20032;-72
2022/04/26 12:46:08;;;;;;;4.95;1.90;;;;;;;20.88;41.92;100189.75;5118550;28;20038;-72
2022/04/26 12:51:27;;;;;;;1.88;1.38;;;;;;;20.80;42.10;100187.16;5129504;28;20122;-72
2022/04/26 12:53:54;;;;;;;;;;;;;;;20.79;41.69;100181.94;5113428;28;20532;-72
2022/04/26 12:56:20;;;;;;;1.73;1.38;;;;;;;20.75;41.42;100169.75;5118402;28;19920;-72
2022/04/26 12:58:48;;;;;;;2.97;1.33;;;;;;;20.87;41.77;100171.72;5124267;28;20076;-73
2022/04/26 13:01:14;;;;;;;1.85;1.50;;;;;;;20.89;41.92;100166.06;5127988;28;20032;-72
2022/04/26 13:03:42;;;;;;;1.67;1.58;;;;;;;20.97;41.46;100168.63;5115537;28;20040;-72
2022/04/26 13:06:10;;;;;;;2.20;1.90;;;;;;;20.98;41.57;100173.00;5122832;28;20023;-72
2022/04/26 13:08:37;;;;;;;1.63;1.30;;;;;;;20.98;41.74;100164.84;5127953;28;20142;-72
2022/04/26 13:11:04;;;;;;;1.20;1.10;;;;;;;20.93;42.06;100162.69;5125563;27;20406;-72
2022/04/26 13:13:30;;;;;;;1.42;1.33;;;;;;;21.03;41.54;100165.06;5124910;27;20685;-72
2022/04/26 13:15:56;;;;;;;2.08;1.65;;;;;;;20.99;42.03;100158.34;5101025;27;20100;-72
2022/04/26 13:18:22;;;;;;;3.30;1.50;;;;;;;20.98;42.10;100157.50;5121481;27;20574;-72
2022/04/26 13:20:48;;;;;;;2.10;1.58;;;;;;;21.06;41.97;100170.13;5112707;28;20032;-72
2022/04/26 13:23:15;;;;;;;1.40;1.30;;;;;;;21.02;41.91;100149.75;5114139;28;20544;-72
2022/04/26 13:25:41;;;;;;;1.83;1.60;;;;;;;21.05;41.84;100165.72;5098242;28;20119;-72
2022/04/26 13:28:08;;;;;;;3.35;1.95;;;;;;;21.03;41.87;100171.38;5131741;27;20027;-72
2022/04/26 13:30:34;;;;;;;3.45;1.65;;;;;;;21.07;41.76;100155.41;5134066;27;20046;-72
2022/04/26 13:33:00;;;;;;;3.83;2.00;;;;;;;21.02;42.37;100160.66;5128525;27;20031;-72
2022/04/26 13:35:26;;;;;;;1.60;1.50;;;;;;;20.99;42.43;100156.44;5106210;27;20482;-72
2022/04/26 13:37:52;;;;;;;2.88;2.00;;;;;;;21.01;42.28;100162.53;5128575;27;20065;-72
2022/04/26 13:40:19;;;;;;;2.25;1.75;;;;;;;21.05;42.54;100160.25;5133260;27;20462;-72
2022/04/26 13:42:45;;;;;;;1.65;1.55;;;;;;;20.89;42.55;100134.16;5127112;27;20027;-72
2022/04/26 13:45:10;;;;;;;2.15;1.70;;;;;;;21.06;42.26;100156.47;5113767;28;20076;-72
2022/04/26 13:47:37;;;;;;;3.63;1.40;;;;;;;21.07;42.12;100150.81;5122765;27;20016;-72
2022/04/26 13:50:07;;;;;;;2.17;1.98;;;;;;;21.09;42.17;100153.34;5120447;27;20031;-72
2022/04/26 13:52:34;;;;;;;2.08;1.80;;;;;;;21.11;42.24;100143.91;5120120;27;20068;-72
2022/04/26 13:55:00;;;;;;;3.70;1.83;;;;;;;21.14;42.04;100145.38;5134130;27;20282;-72
2022/04/26 13:57:25;;;;;;;1.70;1.42;;;;;;;21.10;41.99;100153.13;5128496;27;20030;-72
2022/04/26 13:59:51;;;;;;;1.33;1.23;;;;;;;21.22;41.49;100162.38;5101965;27;20047;-72
2022/04/26 14:02:19;;;;;;;1.92;1.80;;;;;;;21.30;41.10;100159.47;5117560;27;20031;-72
2022/04/26 14:04:47;;;;;;;3.08;1.80;;;;;;;21.27;40.70;100134.47;5100052;28;20126;-72
2022/04/26 14:07:12;;;;;;;1.88;1.60;;;;;;;21.23;40.89;100134.06;5104878;27;20031;-72
2022/04/26 14:09:38;;;;;;;2.53;1.63;;;;;;;21.28;40.88;100145.19;5118993;27;20032;-72
2022/04/26 14:12:04;;;;;;;2.63;1.65;;;;;;;21.30;40.86;100147.69;5119534;27;20478;-72
2022/04/26 14:22:43;;;;;;;2.38;1.60;;;;;;;21.21;40.17;100124.38;5122311;27;20062;-72
2022/04/26 14:25:10;;;;;;;2.20;1.88;;;;;;;21.17;40.75;100128.59;5094398;28;20042;-72
2022/04/26 14:27:38;;;;;;;1.48;1.38;;;;;;;21.13;40.76;100130.91;5112186;28;20372;-71
2022/04/26 14:30:09;;;;;;;1.40;1.30;;;;;;;21.09;40.84;100135.06;5127830;27;20395;-72
2022/04/26 14:32:35;;;;;;;8.02;1.88;;;;;;;21.06;41.46;100137.38;5098561;28;20071;-71
2022/04/26 14:35:01;;;;;;;2.58;1.80;;;;;;;21.05;41.08;100122.91;5098996;28;20051;-72
2022/04/26 14:37:26;;;;;;;2.80;1.70;;;;;;;21.01;41.11;100132.53;5120855;27;20520;-72
2022/04/26 14:39:52;;;;;;;2.75;1.70;;;;;;;21.01;40.89;100129.81;5117080;27;20027;-72
2022/04/26 14:42:18;;;;;;;2.40;1.75;;;;;;;21.00;41.21;100127.28;5122181;27;20039;-72
2022/04/26 14:44:44;;;;;;;2.40;2.20;;;;;;;20.99;41.43;100122.91;5118287;27;20030;-72
2022/04/26 14:47:11;;;;;;;2.33;2.13;;;;;;;20.92;41.53;100122.00;5101640;27;20046;-72
2022/04/26 14:49:37;;;;;;;2.30;2.10;;;;;;;20.98;41.16;100123.94;5114501;27;20030;-71
2022/04/26 14:52:03;;;;;;;23.20;3.05;;;;;;;20.92;41.66;100109.19;5123686;27;20379;-72
2022/04/26 14:54:29;;;;;;;4.55;2.17;;;;;;;20.98;41.76;100123.94;5115303;27;20081;-71
2022/04/26 14:56:55;;;;;;;4.28;1.90;;;;;;;20.93;41.74;100121.78;5092889;28;20024;-71
2022/04/26 14:59:25;;;;;;;2.25;1.63;;;;;;;20.91;41.70;100107.53;5111268;28;20054;-71
2022/04/26 15:01:52;;;;;;;3.17;1.98;;;;;;;20.95;41.81;100116.16;5111244;28;20058;-71
2022/04/26 15:04:21;;;;;;;3.67;2.10;;;;;;;20.89;41.72;100095.16;5107496;27;20023;-71
2022/04/26 15:06:48;;;;;;;2.92;1.70;;;;;;;21.01;41.56;100112.59;5118226;27;20027;-72
2022/04/26 15:17:28;;;;;;;3.05;1.92;;;;;;;21.09;42.36;100099.59;5123462;27;20437;-72
2022/04/26 15:19:54;;;;;;;1.73;1.60;;;;;;;21.03;41.18;100105.94;5123814;27;20035;-66
2022/04/26 15:22:20;;;;;;;20.35;3.42;;;;;;;21.11;42.05;100107.59;5128250;27;20019;-66
2022/04/26 15:24:46;;;;;;;267.17;31.30;;;;;;;21.06;42.82;100101.94;5130965;27;20019;-66
2022/04/26 15:27:14;;;;;;;22.17;4.13;;;;;;;21.12;43.12;100101.94;5092532;28;20016;-66
2022/04/26 15:29:40;;;;;;;4.07;2.08;;;;;;;21.15;43.28;100106.16;5093823;28;20024;-66
2022/04/26 15:32:06;;;;;;;6.72;1.98;;;;;;;21.17;42.71;100098.56;5110622;28;20032;-66
2022/04/26 15:34:32;;;;;;;11.48;2.53;;;;;;;21.14;42.96;100104.44;5110194;28;20043;-66
2022/04/26 15:36:57;;;;;;;3.58;2.40;;;;;;;21.10;43.18;100108.66;5117502;27;20031;-66
2022/04/26 15:39:23;;;;;;;5.10;2.33;;;;;;;21.04;43.31;100098.56;5131155;27;20023;-66
2022/04/26 15:41:48;;;;;;;6.07;2.35;;;;;;;21.06;43.02;100102.78;5107352;28;20038;-66